createdAt,value
2019-02-21T00:00:51.719Z,22.55
2019-02-21T00:03:23.916Z,21.17
2019-02-21T00:05:59.420Z,21.33
2019-02-21T00:08:28.423Z,21.75
2019-02-21T00:11:00.447Z,21.77
2019-02-21T00:13:30.004Z,21.15
2019-02-21T00:15:59.039Z,20.15
2019-02-21T00:18:28.087Z,23.20
2019-02-21T00:20:57.047Z,21.00
2019-02-21T00:23:26.189Z,21.82
2019-02-21T00:25:55.868Z,22.20
2019-02-21T00:28:25.226Z,21.35
2019-02-21T00:30:56.547Z,22.67
2019-02-21T00:33:29.453Z,21.35
2019-02-21T00:36:01.571Z,22.20
2019-02-21T00:38:32.169Z,21.60
2019-02-21T00:41:02.737Z,21.93
2019-02-21T00:43:31.959Z,22.77
2019-02-21T00:46:03.823Z,22.83
2019-02-21T00:48:35.860Z,22.30
2019-02-21T00:51:04.840Z,21.62
2019-02-21T00:53:35.431Z,21.73
2019-02-21T00:56:05.936Z,21.17
2019-02-21T00:58:37.187Z,21.52
2019-02-21T01:01:06.239Z,22.82
2019-02-21T01:03:39.783Z,22.67
2019-02-21T01:06:10.442Z,22.52
2019-02-21T01:08:39.414Z,22.98
2019-02-21T01:11:11.192Z,23.12
2019-02-21T01:13:40.166Z,23.38
2019-02-21T01:16:10.749Z,23.00
2019-02-21T01:18:41.520Z,22.62
2019-02-21T01:21:10.600Z,22.52
2019-02-21T01:23:39.980Z,23.07
2019-02-21T01:26:10.647Z,23.75
2019-02-21T01:28:39.624Z,22.82
2019-02-21T01:31:08.822Z,22.45
2019-02-21T01:33:37.874Z,24.07
2019-02-21T01:36:06.883Z,23.70
2019-02-21T01:38:41.695Z,24.27
2019-02-21T01:41:13.962Z,23.92
2019-02-21T01:43:47.480Z,23.42
2019-02-21T01:46:17.944Z,24.00
2019-02-21T01:48:46.912Z,25.65
2019-02-21T01:51:15.948Z,24.23
2019-02-21T01:53:47.116Z,25.50
2019-02-21T01:56:18.843Z,25.15
2019-02-21T01:58:47.807Z,24.80
2019-02-21T02:01:16.778Z,26.40
2019-02-21T02:03:46.988Z,27.77
2019-02-21T02:06:19.188Z,26.33
2019-02-21T02:08:49.627Z,27.15
2019-02-21T02:11:22.302Z,29.07
2019-02-21T02:13:51.309Z,27.67
2019-02-21T02:16:20.563Z,28.95
2019-02-21T02:18:51.614Z,29.45
2019-02-21T02:21:25.476Z,29.52
2019-02-21T02:23:54.443Z,30.23
2019-02-21T02:26:26.193Z,29.98
2019-02-21T02:28:56.415Z,29.45
2019-02-21T02:31:27.017Z,30.40
2019-02-21T02:33:57.822Z,31.95
2019-02-21T02:36:27.803Z,32.13
2019-02-21T02:38:58.393Z,31.17
2019-02-21T02:41:27.390Z,30.30
2019-02-21T02:43:59.059Z,32.40
2019-02-21T02:46:28.031Z,30.32
2019-02-21T02:49:00.122Z,31.05
2019-02-21T02:51:29.109Z,31.37
2019-02-21T02:53:58.169Z,33.02
2019-02-21T02:56:27.136Z,31.85
2019-02-21T02:58:58.867Z,32.55
2019-02-21T03:01:34.632Z,32.65
2019-02-21T03:04:04.533Z,32.28
2019-02-21T03:06:37.567Z,33.05
2019-02-21T03:09:10.663Z,33.63
2019-02-21T03:11:41.427Z,32.00
2019-02-21T03:14:11.395Z,31.25
2019-02-21T03:16:40.424Z,31.37
2019-02-21T03:19:09.413Z,33.00
2019-02-21T03:21:40.483Z,32.10
2019-02-21T03:24:09.455Z,31.75
2019-02-21T03:26:40.545Z,31.45
2019-02-21T03:29:09.523Z,31.95
2019-02-21T03:31:53.619Z,30.55
2019-02-21T03:34:10.768Z,29.18
2019-02-21T03:36:39.901Z,30.17
2019-02-21T03:39:08.905Z,30.20
2019-02-21T03:41:40.423Z,30.75
2019-02-21T03:44:12.471Z,30.15
2019-02-21T03:46:41.500Z,31.02
2019-02-21T03:49:10.527Z,30.92
2019-02-21T03:51:43.125Z,31.07
2019-02-21T03:54:12.174Z,32.88
2019-02-21T03:56:41.176Z,31.73
2019-02-21T03:59:10.154Z,31.40
2019-02-21T04:01:39.242Z,30.82
2019-02-21T04:04:08.261Z,30.60
2019-02-21T04:06:39.841Z,30.65
2019-02-21T04:09:08.839Z,30.20
2019-02-21T04:11:39.790Z,29.18
2019-02-21T04:14:08.478Z,29.80
2019-02-21T04:16:40.327Z,30.23
2019-02-21T04:19:09.296Z,31.30
2019-02-21T04:21:39.890Z,28.40
2019-02-21T04:24:08.843Z,29.15
2019-02-21T04:27:00.860Z,28.12
2019-02-21T04:29:31.535Z,29.18
2019-02-21T04:32:01.733Z,30.08
2019-02-21T04:34:30.708Z,29.25
2019-02-21T04:36:59.680Z,29.82
2019-02-21T04:39:28.694Z,29.67
2019-02-21T04:42:00.703Z,28.87
2019-02-21T04:44:31.470Z,29.92
2019-02-21T04:47:00.623Z,28.32
2019-02-21T04:49:29.658Z,30.70
2019-02-21T04:51:58.622Z,30.05
2019-02-21T04:54:27.597Z,31.17
2019-02-21T04:57:00.829Z,30.43
2019-02-21T04:59:31.479Z,30.27
2019-02-21T05:02:02.309Z,31.20
2019-02-21T05:04:31.347Z,31.55
2019-02-21T05:07:02.045Z,31.80
2019-02-21T05:09:34.238Z,31.20
2019-02-21T05:12:03.273Z,32.17
2019-02-21T05:14:39.638Z,33.78
2019-02-21T05:17:08.601Z,32.75
2019-02-21T05:19:37.577Z,34.38
2019-02-21T05:22:11.423Z,34.45
2019-02-21T05:24:40.434Z,32.93
2019-02-21T05:27:13.730Z,33.88
2019-02-21T05:29:47.554Z,34.30
2019-02-21T05:32:41.020Z,34.48
2019-02-21T05:35:09.291Z,33.75
2019-02-21T05:37:44.919Z,33.78
2019-02-21T05:40:17.963Z,34.40
2019-02-21T05:42:55.814Z,34.45
2019-02-21T05:45:42.525Z,34.63
2019-02-21T05:48:16.045Z,35.55
2019-02-21T05:51:01.380Z,34.83
2019-02-21T05:53:39.374Z,35.58
2019-02-21T05:56:15.601Z,34.13
2019-02-21T05:58:49.025Z,33.33
2019-02-21T06:01:25.306Z,33.53
2019-02-21T06:03:58.730Z,32.42
2019-02-21T06:06:34.863Z,34.10
2019-02-21T06:09:16.398Z,33.90
2019-02-21T06:11:59.184Z,33.60
2019-02-21T06:14:31.696Z,34.50
2019-02-21T06:17:05.064Z,33.85
2019-02-21T06:19:35.723Z,33.05
2019-02-21T06:22:22.449Z,32.78
2019-02-21T06:24:54.333Z,34.80
2019-02-21T06:27:42.320Z,34.45
2019-02-21T06:30:17.104Z,33.98
2019-02-21T06:32:45.764Z,35.78
2019-02-21T06:35:17.324Z,34.75
2019-02-21T06:37:46.293Z,33.75
2019-02-21T06:40:17.910Z,34.48
2019-02-21T06:42:47.082Z,33.53
2019-02-21T06:45:18.057Z,34.40
2019-02-21T06:47:49.946Z,33.67
2019-02-21T06:50:26.844Z,34.05
2019-02-21T06:53:00.580Z,32.33
2019-02-21T06:55:32.965Z,32.55
2019-02-21T06:58:04.030Z,32.48
2019-02-21T07:00:33.055Z,32.78
2019-02-21T07:03:15.114Z,32.45
2019-02-21T07:05:37.155Z,32.13
2019-02-21T07:08:08.661Z,32.10
2019-02-21T07:10:36.872Z,33.80
2019-02-21T07:13:08.509Z,31.62
2019-02-21T07:15:37.475Z,32.83
2019-02-21T07:18:06.476Z,31.45
2019-02-21T07:20:39.805Z,31.27
2019-02-21T07:23:11.208Z,30.27
2019-02-21T07:25:41.386Z,31.00
2019-02-21T07:28:15.837Z,31.73
2019-02-21T07:30:45.624Z,31.25
2019-02-21T07:33:14.856Z,31.35
2019-02-21T07:35:43.803Z,31.47
2019-02-21T07:38:12.800Z,29.75
2019-02-21T07:40:41.778Z,30.95
2019-02-21T07:43:12.689Z,28.98
2019-02-21T07:45:42.712Z,28.83
2019-02-21T07:48:15.521Z,30.45
2019-02-21T07:50:45.799Z,30.15
2019-02-21T07:53:18.897Z,28.77
2019-02-21T07:55:47.933Z,29.77
2019-02-21T07:58:16.986Z,29.90
2019-02-21T08:00:45.963Z,28.67
2019-02-21T08:03:14.956Z,29.65
2019-02-21T08:05:45.547Z,29.40
2019-02-21T08:08:20.943Z,28.87
2019-02-21T08:10:50.795Z,29.65
2019-02-21T08:13:22.451Z,29.87
2019-02-21T08:15:53.214Z,29.80
2019-02-21T08:18:24.383Z,29.75
2019-02-21T08:20:56.394Z,29.67
2019-02-21T08:23:25.357Z,31.07
2019-02-21T08:25:54.375Z,29.18
2019-02-21T08:28:23.470Z,29.40
2019-02-21T08:30:52.503Z,30.17
2019-02-21T08:33:24.305Z,29.25
2019-02-21T08:35:58.634Z,31.25
2019-02-21T08:38:27.596Z,30.60
2019-02-21T08:40:57.267Z,29.80
2019-02-21T08:43:26.290Z,29.75
2019-02-21T08:45:57.604Z,30.17
2019-02-21T08:48:26.794Z,29.60
2019-02-21T08:50:58.153Z,27.95
2019-02-21T08:53:28.147Z,29.32
2019-02-21T08:55:59.050Z,29.15
2019-02-21T08:58:28.006Z,28.67
2019-02-21T09:00:57.179Z,28.55
2019-02-21T09:03:34.838Z,27.82
2019-02-21T09:06:06.967Z,28.45
2019-02-21T09:08:37.289Z,29.18
2019-02-21T09:11:06.459Z,28.70
2019-02-21T09:13:35.412Z,29.32
2019-02-21T09:16:04.389Z,28.85
2019-02-21T09:18:33.428Z,27.37
2019-02-21T09:21:02.402Z,28.42
2019-02-21T09:23:37.587Z,28.50
2019-02-21T09:26:06.538Z,30.10
2019-02-21T09:28:35.551Z,28.67
2019-02-21T09:31:10.558Z,28.85
2019-02-21T09:33:43.815Z,28.90
2019-02-21T09:36:16.570Z,28.52
2019-02-21T09:38:45.549Z,28.00
2019-02-21T09:41:16.904Z,28.12
2019-02-21T09:43:45.878Z,28.50
2019-02-21T09:46:14.833Z,27.80
2019-02-21T09:48:46.904Z,28.73
2019-02-21T09:51:21.700Z,28.70
2019-02-21T09:53:52.450Z,28.20
2019-02-21T09:56:30.311Z,27.22
2019-02-21T09:59:00.172Z,29.35
2019-02-21T10:01:29.138Z,28.65
2019-02-21T10:07:32.294Z,26.23
2019-02-21T10:10:01.294Z,26.90
2019-02-21T10:12:33.493Z,26.25
2019-02-21T10:15:08.315Z,26.45
2019-02-21T10:17:38.418Z,27.17
2019-02-21T10:22:35.515Z,26.27
2019-02-21T10:25:06.007Z,26.65
2019-02-21T10:27:35.526Z,26.73
2019-02-21T10:30:06.035Z,27.00
2019-02-21T10:32:37.023Z,26.60
2019-02-21T10:35:06.065Z,26.95
2019-02-21T10:37:36.234Z,27.13
2019-02-21T10:40:08.442Z,27.05
2019-02-21T10:42:41.229Z,27.10
2019-02-21T10:45:11.609Z,26.80
2019-02-21T10:47:41.309Z,28.30
2019-02-21T10:50:14.127Z,27.82
2019-02-21T10:52:44.673Z,28.12
2019-02-21T10:55:15.847Z,27.62
2019-02-21T10:57:45.684Z,27.58
2019-02-21T11:00:19.385Z,26.70
2019-02-21T11:02:49.929Z,27.22
2019-02-21T11:05:18.923Z,27.05
2019-02-21T11:07:49.786Z,25.68
2019-02-21T11:10:20.286Z,25.48
2019-02-21T11:12:49.573Z,25.62
2019-02-21T11:15:20.083Z,26.17
2019-02-21T11:17:56.895Z,25.48
2019-02-21T11:20:27.066Z,25.95
2019-02-21T11:22:57.704Z,26.40
2019-02-21T11:25:30.076Z,26.23
2019-02-21T11:27:59.105Z,25.00
2019-02-21T11:30:28.062Z,25.35
2019-02-21T11:32:57.688Z,26.48
2019-02-21T11:35:30.472Z,23.98
2019-02-21T11:43:19.758Z,24.43
2019-02-21T11:45:56.997Z,23.70
2019-02-21T11:48:23.994Z,25.10
2019-02-21T11:50:52.964Z,23.35
2019-02-21T11:53:21.960Z,22.20
2019-02-21T11:55:50.990Z,20.65
2019-02-21T11:58:22.814Z,20.82
2019-02-21T12:00:51.846Z,21.33
2019-02-21T12:03:21.455Z,21.77
2019-02-21T12:05:50.655Z,21.73
2019-02-21T12:08:19.626Z,21.85
2019-02-21T12:10:50.873Z,21.82
2019-02-21T12:13:19.311Z,19.90
2019-02-21T12:15:48.314Z,17.40
2019-02-21T12:18:21.822Z,17.35
2019-02-21T12:20:53.490Z,17.50
2019-02-21T12:23:22.454Z,16.90
2019-02-21T12:25:53.852Z,16.37
2019-02-21T12:28:22.633Z,14.93
2019-02-21T12:30:51.584Z,15.93
2019-02-21T12:33:20.571Z,16.25
2019-02-21T12:35:49.654Z,15.30
2019-02-21T12:38:22.882Z,15.15
2019-02-21T12:40:51.904Z,14.50
2019-02-21T12:43:20.869Z,15.63
2019-02-21T12:45:52.596Z,14.98
2019-02-21T12:48:20.507Z,15.30
2019-02-21T12:50:49.581Z,14.75
2019-02-21T12:53:18.516Z,15.70
2019-02-21T12:55:47.495Z,15.48
2019-02-21T12:58:16.473Z,15.50
2019-02-21T13:00:45.479Z,15.00
2019-02-21T13:03:15.730Z,15.33
2019-02-21T13:05:50.379Z,14.55
2019-02-21T13:08:20.909Z,14.90
2019-02-21T13:10:51.073Z,13.80
2019-02-21T13:13:20.195Z,14.83
2019-02-21T13:15:49.880Z,14.03
2019-02-21T13:18:18.867Z,15.78
2019-02-21T13:20:47.819Z,15.53
2019-02-21T13:23:16.791Z,15.00
2019-02-21T13:25:46.057Z,16.27
2019-02-21T13:28:16.657Z,16.60
2019-02-21T13:30:48.238Z,16.77
2019-02-21T13:33:16.579Z,17.70
2019-02-21T13:35:52.725Z,18.77
2019-02-21T13:38:19.171Z,18.70
2019-02-21T13:40:49.606Z,18.45
2019-02-21T13:43:24.851Z,18.70
2019-02-21T13:45:53.840Z,17.70
2019-02-21T13:48:23.290Z,16.85
2019-02-21T13:50:52.329Z,16.27
2019-02-21T13:53:23.288Z,17.10
2019-02-21T13:55:51.956Z,19.27
2019-02-21T13:58:24.825Z,19.45
2019-02-21T14:00:53.849Z,18.70
2019-02-21T14:03:22.897Z,21.35
2019-02-21T14:05:51.937Z,22.17
2019-02-21T14:08:20.906Z,23.12
2019-02-21T14:10:49.982Z,22.95
2019-02-21T14:13:21.114Z,24.63
2019-02-21T14:15:50.094Z,25.05
2019-02-21T14:18:19.099Z,27.75
2019-02-21T14:20:50.394Z,28.47
2019-02-21T14:23:19.904Z,27.35
2019-02-21T14:25:48.870Z,29.00
2019-02-21T14:28:24.056Z,30.72
2019-02-21T14:30:53.056Z,31.23
2019-02-21T14:33:22.215Z,29.95
2019-02-21T14:35:56.711Z,31.97
2019-02-21T14:38:28.235Z,30.92
2019-02-21T14:40:58.659Z,31.85
2019-02-21T14:43:30.589Z,30.82
2019-02-21T14:45:59.590Z,31.05
2019-02-21T14:48:28.637Z,30.65
2019-02-21T14:50:59.858Z,31.62
2019-02-21T14:53:28.893Z,32.50
2019-02-21T14:55:57.885Z,31.75
2019-02-21T14:58:26.912Z,30.55
2019-02-21T15:00:56.052Z,31.48
2019-02-21T15:03:27.064Z,33.10
2019-02-21T15:05:59.569Z,32.05
2019-02-21T15:08:28.856Z,33.65
2019-02-21T15:10:59.448Z,34.18
2019-02-21T15:15:57.611Z,34.80
2019-02-21T15:18:28.295Z,36.40
2019-02-21T15:20:57.348Z,34.78
2019-02-21T15:23:29.145Z,38.20
2019-02-21T15:26:01.377Z,34.30
2019-02-21T15:28:31.504Z,36.77
2019-02-21T15:31:03.356Z,37.08
2019-02-21T15:33:32.387Z,37.30
2019-02-21T15:36:01.574Z,37.40
2019-02-21T15:38:33.565Z,37.85
2019-02-21T15:41:05.483Z,41.42
2019-02-21T15:43:34.728Z,40.03
2019-02-21T15:46:07.436Z,39.40
2019-02-21T15:51:04.889Z,37.48
2019-02-21T15:53:36.279Z,39.55
2019-02-21T15:56:05.315Z,38.42
2019-02-21T15:58:36.610Z,39.83
2019-02-21T16:01:05.593Z,41.50
2019-02-21T16:03:34.561Z,38.25
2019-02-21T16:06:03.548Z,40.12
2019-02-21T16:08:35.665Z,41.33
2019-02-21T16:11:04.802Z,42.48
2019-02-21T16:13:36.118Z,38.93
2019-02-21T16:16:05.493Z,40.67
2019-02-21T16:18:36.169Z,37.83
2019-02-21T16:21:05.143Z,39.90
2019-02-21T16:23:34.123Z,41.92
2019-02-21T16:26:03.141Z,41.53
2019-02-21T16:28:34.886Z,40.73
2019-02-21T16:31:03.853Z,40.95
2019-02-21T16:33:35.525Z,40.17
2019-02-21T16:36:17.190Z,42.33
2019-02-21T16:38:41.607Z,40.83
2019-02-21T16:41:10.803Z,40.67
2019-02-21T16:43:40.426Z,42.67
2019-02-21T16:46:09.406Z,130.12
2019-02-21T16:48:44.548Z,47.65
2019-02-21T16:51:13.510Z,40.52
2019-02-21T16:53:45.808Z,38.35
2019-02-21T16:56:14.777Z,39.53
2019-02-21T16:58:48.362Z,37.83
2019-02-21T17:01:17.393Z,38.13
2019-02-21T17:03:46.422Z,38.38
2019-02-21T17:06:16.428Z,39.27
2019-02-21T17:11:16.518Z,37.78
2019-02-21T17:16:19.293Z,41.15
2019-02-21T17:18:48.282Z,39.53
2019-02-21T17:21:17.320Z,39.45
2019-02-21T17:23:46.976Z,39.25
2019-02-21T17:26:16.834Z,40.17
2019-02-21T17:28:51.962Z,40.17
2019-02-21T17:31:22.120Z,41.58
2019-02-21T17:36:26.110Z,36.17
2019-02-21T17:38:55.738Z,38.38
2019-02-21T17:41:24.737Z,39.23
2019-02-21T17:43:53.711Z,37.08
2019-02-21T17:46:22.724Z,37.80
2019-02-21T17:48:51.712Z,38.65
2019-02-21T17:51:21.286Z,37.63
2019-02-21T17:53:50.261Z,38.17
2019-02-21T17:56:19.394Z,37.17
2019-02-21T17:58:52.339Z,37.50
2019-02-21T18:01:22.548Z,38.35
2019-02-21T18:03:53.176Z,39.23
2019-02-21T18:06:26.162Z,38.23
2019-02-21T18:08:55.305Z,39.65
2019-02-21T18:11:24.586Z,37.60
2019-02-21T18:13:53.562Z,38.65
2019-02-21T18:16:22.579Z,38.48
2019-02-21T18:18:51.597Z,38.08
2019-02-21T18:21:21.790Z,37.20
2019-02-21T18:23:56.105Z,38.67
2019-02-21T18:26:25.381Z,38.10
2019-02-21T18:28:55.977Z,37.50
2019-02-21T18:31:27.227Z,38.00
2019-02-21T18:33:56.261Z,39.48
2019-02-21T18:36:25.736Z,38.78
2019-02-21T18:38:56.263Z,38.63
2019-02-21T18:41:25.232Z,37.30
2019-02-21T18:43:55.821Z,35.33
2019-02-21T18:46:24.804Z,36.03
2019-02-21T18:48:55.097Z,34.48
2019-02-21T18:51:24.789Z,36.73
2019-02-21T18:53:53.754Z,33.65
2019-02-21T18:56:22.810Z,35.00
2019-02-21T18:58:51.856Z,35.23
2019-02-21T19:01:20.869Z,36.88
2019-02-21T19:03:52.652Z,34.55
2019-02-21T19:06:24.953Z,33.75
2019-02-21T19:08:56.475Z,34.85
2019-02-21T19:11:25.454Z,33.50
2019-02-21T19:13:54.456Z,35.98
2019-02-21T19:16:24.095Z,36.20
2019-02-21T19:18:53.139Z,36.13
2019-02-21T19:21:22.185Z,34.07
2019-02-21T19:23:51.231Z,35.15
2019-02-21T19:26:20.225Z,36.15
2019-02-21T19:28:49.526Z,35.95
2019-02-21T19:31:21.343Z,36.42
2019-02-21T19:33:50.423Z,36.83
2019-02-21T19:36:22.442Z,39.10
2019-02-21T19:38:52.055Z,36.20
2019-02-21T19:41:21.023Z,37.13
2019-02-21T19:43:50.015Z,38.30
2019-02-21T19:46:19.062Z,35.58
2019-02-21T19:48:48.042Z,36.28
2019-02-21T19:51:18.231Z,35.55
2019-02-21T19:53:48.964Z,37.53
2019-02-21T19:56:19.518Z,36.48
2019-02-21T19:58:50.066Z,37.63
2019-02-21T20:01:19.042Z,37.23
2019-02-21T20:03:48.037Z,35.80
2019-02-21T20:06:17.012Z,35.45
2019-02-21T20:08:51.992Z,35.63
2019-02-21T20:11:21.146Z,36.28
2019-02-21T20:13:50.153Z,36.17
2019-02-21T20:16:19.126Z,37.40
2019-02-21T20:18:48.116Z,35.95
2019-02-21T20:23:50.404Z,35.88
2019-02-21T20:26:19.358Z,36.53
2019-02-21T20:28:48.348Z,37.65
2019-02-21T20:31:21.327Z,37.08
2019-02-21T20:33:56.430Z,38.83
2019-02-21T20:36:25.412Z,40.08
2019-02-21T20:38:58.324Z,39.88
2019-02-21T20:41:31.257Z,39.40
2019-02-21T20:44:02.008Z,40.17
2019-02-21T20:46:32.486Z,42.17
2019-02-21T20:49:11.061Z,38.92
2019-02-21T20:51:41.300Z,39.27
2019-02-21T20:56:41.140Z,35.65
2019-02-21T20:59:10.397Z,37.65
2019-02-21T21:01:39.333Z,40.10
2019-02-21T21:04:09.591Z,39.45
2019-02-21T21:06:41.419Z,39.27
2019-02-21T21:09:10.467Z,38.25
2019-02-21T21:11:39.579Z,39.57
2019-02-21T21:14:08.555Z,38.55
2019-02-21T21:16:37.543Z,37.90
2019-02-21T21:19:06.655Z,39.85
2019-02-21T21:21:35.678Z,37.95
2019-02-21T21:24:04.641Z,37.40
2019-02-21T21:26:36.862Z,39.15
2019-02-21T21:29:06.010Z,39.53
2019-02-21T21:31:34.951Z,41.90
2019-02-21T21:34:08.460Z,43.68
2019-02-21T21:36:37.615Z,41.75
2019-02-21T21:41:36.747Z,42.45
2019-02-21T21:44:09.406Z,43.85
2019-02-21T21:46:38.387Z,43.13
2019-02-21T21:49:07.414Z,41.10
2019-02-21T21:51:39.415Z,39.83
2019-02-21T21:54:11.409Z,38.28
2019-02-21T21:56:42.505Z,41.25
2019-02-21T21:59:11.538Z,39.30
2019-02-21T22:01:42.855Z,40.15
2019-02-21T22:04:11.874Z,36.85
2019-02-21T22:06:40.863Z,39.08
2019-02-21T22:09:09.866Z,38.35
2019-02-21T22:11:40.001Z,40.03
2019-02-21T22:14:09.073Z,38.08
2019-02-21T22:16:38.053Z,37.20
2019-02-21T22:19:07.086Z,37.08
2019-02-21T22:21:36.049Z,39.18
2019-02-21T22:24:05.961Z,37.28
2019-02-21T22:26:38.930Z,40.65
2019-02-21T22:29:08.012Z,39.90
2019-02-21T22:31:36.986Z,39.13
2019-02-21T22:34:08.930Z,38.80
2019-02-21T22:36:38.184Z,38.23
2019-02-21T22:39:15.692Z,41.50
2019-02-21T22:41:38.990Z,38.38
2019-02-21T22:44:07.954Z,41.60
2019-02-21T22:46:36.966Z,41.20
2019-02-21T22:49:07.061Z,40.17
2019-02-21T22:51:39.248Z,40.03
2019-02-21T22:54:14.474Z,38.73
2019-02-21T22:56:43.466Z,37.95
2019-02-21T22:59:12.497Z,39.33
2019-02-21T23:01:41.804Z,38.90
2019-02-21T23:04:18.842Z,42.10
2019-02-21T23:06:51.694Z,42.43
2019-02-21T23:09:27.958Z,40.70
2019-02-21T23:11:55.694Z,40.85
2019-02-21T23:14:27.668Z,40.05
2019-02-21T23:17:00.568Z,40.73
2019-02-21T23:19:30.175Z,38.70
2019-02-21T23:21:59.214Z,39.78
2019-02-21T23:24:28.193Z,39.13
2019-02-21T23:26:57.170Z,38.38
2019-02-21T23:29:26.153Z,38.60
2019-02-21T23:31:55.177Z,38.42
2019-02-21T23:34:38.364Z,36.17
2019-02-21T23:37:07.592Z,33.80
2019-02-21T23:39:38.531Z,36.33
2019-02-21T23:42:07.386Z,35.08
2019-02-21T23:44:36.408Z,36.77
2019-02-21T23:47:05.574Z,36.33
2019-02-21T23:49:34.571Z,34.90
2019-02-21T23:52:06.501Z,34.13
2019-02-21T23:54:35.525Z,32.53
2019-02-21T23:57:07.625Z,32.10
2019-02-21T23:59:39.960Z,34.15
